Richton Park, Illinois
Current Conditions -  °F | °C
As of 1:55 PM on Tuesday 21 Oct 2014 (Local Time) from KIGQ Reporting Station
Moderate Rain Moderate Rain  
Wind Chill: 45°   Ceiling: 1400
Heat Index: 49°   Visibility: 10mi
Dew Point: 46°   Wind: 9mph
Humidity: 89%   Direction: 360°N
Pressure: 30.17"   Gusts: 20mph
Location:  41.48°N, 87.72°W
Report Text: KIGQ 211855Z AUTO 36008G17KT 10SM RA BKN014 BKN022 OVC028 09/08 A3017 RMK AO2 T00940077
Loading
Personal Weather Stations






























Interactive Weather Map New forecast layout! Learn more

10-Day Weather Forecast

Advertisements
Track Severe Weather on mobile